Time;durP1;ratioP1;P1;durP2;ratioP2;P2;SDS_P1;SDS_P2;PMS_P1;PMS_P2;Temp;Humidity;BMP_temperature;BMP_pressure;BME280_temperature;BME280_humidity;BME280_pressure;Samples;Min_cycle;Max_cycle;Signal;HPM_P1;HPM_P2
2022/08/19 00:02:01;;;;;;;;;16.25;15.00;;;;;21.70;58.12;101312.16;5078071;27;45344;-74
2022/08/19 00:04:30;;;;;;;;;13.25;12.00;;;;;21.64;57.77;101307.28;5077936;28;45423;-75
2022/08/19 00:06:56;;;;;;;;;21.00;17.00;;;;;21.61;58.39;101313.59;5078112;27;45391;-75
2022/08/19 00:09:23;;;;;;;;;17.75;14.25;;;;;21.61;57.20;101312.75;5077924;27;45479;-76
2022/08/19 00:11:49;;;;;;;;;14.50;13.25;;;;;21.60;57.60;101311.94;5076450;27;45414;-75
2022/08/19 00:14:16;;;;;;;;;17.75;14.75;;;;;21.57;57.34;101305.97;5076628;28;46375;-75
2022/08/19 00:16:44;;;;;;;;;15.75;14.50;;;;;21.55;57.43;101314.03;5076471;27;45720;-75
2022/08/19 00:19:10;;;;;;;;;14.00;12.75;;;;;21.51;57.94;101316.97;5078009;27;45336;-75
2022/08/19 00:21:39;;;;;;;;;16.50;14.25;;;;;21.51;57.77;101319.59;5076640;27;45393;-75
2022/08/19 00:24:06;;;;;;;;;14.75;12.00;;;;;21.42;57.70;101316.59;5077570;27;46270;-75
2022/08/19 00:26:31;;;;;;;;;14.50;14.25;;;;;21.40;58.33;101315.84;5077260;27;45357;-75
2022/08/19 00:28:57;;;;;;;;;18.50;15.50;;;;;21.38;58.21;101316.91;5076460;27;45350;-75
2022/08/19 00:31:22;;;;;;;;;17.25;14.00;;;;;21.35;58.17;101323.22;5076667;27;70307;-75
2022/08/19 00:33:50;;;;;;;;;14.50;14.25;;;;;21.32;57.88;101318.16;5077255;27;49413;-75
2022/08/19 00:36:16;;;;;;;;;17.25;12.00;;;;;21.25;57.88;101325.63;5076162;28;45814;-75
2022/08/19 00:38:42;;;;;;;;;15.75;13.25;;;;;21.26;58.46;101316.72;5076291;27;45417;-75
2022/08/19 00:41:09;;;;;;;;;14.25;12.50;;;;;21.28;58.25;101321.94;5077225;27;45527;-75
2022/08/19 00:43:35;;;;;;;;;15.00;12.00;;;;;21.25;57.91;101319.50;5076222;28;45485;-75
2022/08/19 00:46:04;;;;;;;;;18.75;12.25;;;;;21.21;58.32;101329.44;5075422;28;71420;-75
2022/08/19 00:48:29;;;;;;;;;12.00;10.50;;;;;21.17;58.46;101319.13;5077352;27;45298;-75
2022/08/19 00:50:55;;;;;;;;;11.75;11.75;;;;;21.13;58.44;101326.41;5077434;28;45334;-75
2022/08/19 00:53:23;;;;;;;;;13.75;11.00;;;;;21.14;58.35;101324.63;5076890;27;45323;-75
2022/08/19 00:55:51;;;;;;;;;11.25;10.25;;;;;21.13;59.04;101322.94;5076806;28;45191;-75
2022/08/19 00:58:19;;;;;;;;;17.00;12.50;;;;;21.10;58.89;101325.75;5076108;28;45530;-75
2022/08/19 01:00:46;;;;;;;;;10.75;10.50;;;;;21.13;58.85;101313.19;5076143;28;45409;-75
2022/08/19 01:03:14;;;;;;;;;15.50;11.75;;;;;21.15;58.92;101321.88;5076983;28;45666;-75
2022/08/19 01:05:42;;;;;;;;;15.25;13.00;;;;;21.12;58.79;101321.22;5075894;28;45727;-75
2022/08/19 01:08:07;;;;;;;;;11.00;10.00;;;;;21.06;58.84;101328.63;5075968;28;45398;-75
2022/08/19 01:10:37;;;;;;;;;13.50;10.50;;;;;21.05;58.84;101324.25;5075661;27;67973;-75
2022/08/19 01:13:03;;;;;;;;;12.00;10.25;;;;;21.04;58.70;101325.22;5075624;28;45503;-75
2022/08/19 01:15:35;;;;;;;;;14.25;11.75;;;;;21.03;58.83;101320.03;5076830;27;45672;-75
2022/08/19 01:18:07;;;;;;;;;11.50;10.50;;;;;20.99;58.82;101311.44;5075789;27;45496;-75
2022/08/19 01:20:34;;;;;;;;;10.25;9.75;;;;;20.99;59.01;101315.88;5075717;27;45283;-75
2022/08/19 01:22:59;;;;;;;;;15.25;12.25;;;;;20.99;59.32;101311.44;5075138;27;46082;-75
2022/08/19 01:25:32;;;;;;;;;12.50;12.25;;;;;20.98;59.58;101316.81;5075537;27;45385;-75
2022/08/19 01:27:57;;;;;;;;;13.75;12.50;;;;;20.96;59.64;101322.19;5075660;28;45749;-75
2022/08/19 01:30:30;;;;;;;;;12.25;11.75;;;;;20.94;59.08;101323.25;5075741;28;70486;-75
2022/08/19 01:32:56;;;;;;;;;13.75;12.00;;;;;20.87;59.34;101330.72;5075140;28;46484;-75
2022/08/19 01:35:24;;;;;;;;;13.00;10.50;;;;;20.80;59.29;101326.75;5075163;28;45267;-75
2022/08/19 01:37:52;;;;;;;;;14.75;14.00;;;;;20.79;59.32;101330.38;5076181;27;45271;-75
2022/08/19 01:40:20;;;;;;;;;11.25;10.00;;;;;20.79;59.22;101331.19;5076739;27;45392;-75
2022/08/19 01:42:47;;;;;;;;;16.00;12.75;;;;;20.81;59.77;101333.75;5076573;27;45570;-75
2022/08/19 01:45:13;;;;;;;;;15.50;13.75;;;;;20.82;59.82;101332.78;5076353;27;45915;-75
2022/08/19 01:47:38;;;;;;;;;16.75;13.00;;;;;20.81;59.81;101334.59;5076561;27;45467;-75
2022/08/19 01:50:06;;;;;;;;;11.50;11.25;;;;;20.78;59.80;101336.59;5076421;27;45403;-75
2022/08/19 01:52:31;;;;;;;;;14.00;13.75;;;;;20.73;59.89;101339.53;5057897;28;47523;-75
2022/08/19 01:54:57;;;;;;;;;16.00;12.75;;;;;20.64;59.80;101326.88;5075280;28;71658;-76
2022/08/19 01:57:22;;;;;;;;;16.75;14.00;;;;;20.59;59.78;101342.13;5075191;28;68254;-74
2022/08/19 01:59:47;;;;;;;;;17.75;13.25;;;;;20.52;59.89;101344.28;5074072;28;68540;-75
2022/08/19 02:02:13;;;;;;;;;14.25;12.00;;;;;20.47;60.10;101335.81;5075457;28;63261;-75
2022/08/19 02:04:39;;;;;;;;;16.00;13.25;;;;;20.47;60.39;101347.25;5075003;28;45405;-74
2022/08/19 02:07:05;;;;;;;;;23.25;14.25;;;;;20.42;60.41;101341.38;5074281;27;49317;-75
2022/08/19 02:09:31;;;;;;;;;14.25;13.00;;;;;20.47;60.95;101335.81;5076198;27;45403;-75
2022/08/19 02:11:57;;;;;;;;;17.50;11.25;;;;;20.53;61.08;101335.44;5076043;27;45528;-75
2022/08/19 02:14:22;;;;;;;;;14.75;13.00;;;;;20.54;60.89;101338.91;5074783;27;45266;-75
2022/08/19 02:16:47;;;;;;;;;13.75;12.50;;;;;20.52;60.17;101338.16;5074741;28;45246;-74
2022/08/19 02:19:13;;;;;;;;;17.75;15.25;;;;;20.50;60.61;101332.97;5076032;27;45331;-75
2022/08/19 02:21:38;;;;;;;;;15.25;14.00;;;;;20.45;60.86;101335.06;5074594;28;75370;-74
2022/08/19 02:24:04;;;;;;;;;13.25;12.75;;;;;20.42;60.30;101333.44;5074296;28;51994;-75
2022/08/19 02:26:30;;;;;;;;;13.00;11.50;;;;;20.39;60.52;101332.78;5075882;27;45355;-75
2022/08/19 02:28:55;;;;;;;;;17.50;14.00;;;;;20.42;61.11;101325.50;5075833;27;45321;-75
2022/08/19 02:31:22;;;;;;;;;16.75;13.75;;;;;20.44;60.53;101334.19;5075604;28;45309;-75
2022/08/19 02:33:48;;;;;;;;;13.25;12.00;;;;;20.46;60.80;101337.59;5074704;28;45397;-75
2022/08/19 02:36:15;;;;;;;;;14.50;13.00;;;;;20.51;60.75;101339.97;5074456;27;64791;-74
2022/08/19 02:38:41;;;;;;;;;14.00;13.75;;;;;20.54;61.31;101345.09;5074610;28;45337;-75
2022/08/19 02:41:18;;;;;;;;;15.75;12.00;;;;;20.49;61.16;101348.00;5074326;28;45416;-75
2022/08/19 02:43:44;;;;;;;;;13.25;13.25;;;;;20.45;60.92;101345.66;5074423;27;45292;-75
2022/08/19 02:46:21;;;;;;;;;15.25;12.75;;;;;20.42;60.79;101338.72;5074771;27;68621;-75
2022/08/19 02:48:51;;;;;;;;;16.50;12.75;;;;;20.38;60.99;101336.38;5075657;27;45424;-75
2022/08/19 02:51:31;;;;;;;;;19.50;16.75;;;;;20.36;61.56;101336.47;5075219;27;46718;-75
2022/08/19 02:53:56;;;;;;;;;11.00;11.00;;;;;20.33;61.20;101336.63;5074250;28;45472;-75
2022/08/19 02:56:24;;;;;;;;;14.00;12.00;;;;;20.34;61.49;101337.47;5074418;28;45431;-75
2022/08/19 02:58:49;;;;;;;;;14.00;14.00;;;;;20.30;61.45;101335.06;5074346;28;45445;-75
2022/08/19 03:01:29;;;;;;;;;12.25;12.00;;;;;20.21;61.58;101337.41;5074130;28;46287;-75
2022/08/19 03:03:56;;;;;;;;;15.25;12.25;;;;;20.11;61.79;101332.66;5075485;28;45378;-75
2022/08/19 03:06:22;;;;;;;;;15.25;12.50;;;;;20.05;62.50;101337.44;5075253;27;45361;-75
2022/08/19 03:08:49;;;;;;;;;13.25;12.50;;;;;20.01;62.63;101341.22;5077567;27;45496;-75
2022/08/19 03:11:21;;;;;;;;;18.25;15.75;;;;;20.01;62.51;101341.22;5077620;27;47186;-75
2022/08/19 03:13:48;;;;;;;;;16.75;13.75;;;;;19.99;62.77;101345.75;5078695;27;45822;-75
2022/08/19 03:16:14;;;;;;;;;19.25;16.25;;;;;19.98;62.46;101342.25;5078937;27;45356;-75
2022/08/19 03:18:40;;;;;;;;;15.25;14.50;;;;;20.06;62.50;101347.09;5078921;27;45415;-75
2022/08/19 03:21:05;;;;;;;;;15.00;12.50;;;;;20.03;63.20;101342.81;5078215;28;46532;-75
2022/08/19 03:23:31;;;;;;;;;20.75;15.75;;;;;20.02;63.33;101334.97;5077542;27;45456;-75
2022/08/19 03:25:56;;;;;;;;;17.50;15.25;;;;;20.02;63.13;101332.34;5078630;27;45403;-75
2022/08/19 03:28:22;;;;;;;;;16.25;12.50;;;;;20.03;62.90;101334.91;5078630;27;45487;-75
2022/08/19 03:30:58;;;;;;;;;14.00;12.25;;;;;20.02;62.96;101338.50;5078445;28;46525;-75
2022/08/19 03:33:25;;;;;;;;;11.00;9.00;;;;;20.00;62.93;101334.22;5078339;27;45322;-74
2022/08/19 03:36:09;;;;;;;;;17.75;13.50;;;;;19.98;63.75;101334.31;5077195;27;45345;-74
2022/08/19 03:38:40;;;;;;;;;12.75;12.50;;;;;19.95;63.35;101331.00;5078422;27;45299;-75
2022/08/19 03:41:08;;;;;;;;;16.25;13.50;;;;;19.92;63.38;101330.25;5078388;27;45380;-75
2022/08/19 03:43:36;;;;;;;;;13.75;13.00;;;;;19.94;63.73;101339.88;5077298;28;45858;-74
2022/08/19 03:46:08;;;;;;;;;17.75;15.50;;;;;19.92;63.66;101338.16;5078480;27;45337;-75
2022/08/19 03:48:34;;;;;;;;;17.75;13.00;;;;;19.90;63.71;101329.47;5078046;27;45372;-74
2022/08/19 03:51:00;;;;;;;;;17.25;15.00;;;;;19.97;63.56;101334.44;5077994;27;46307;-74
2022/08/19 03:53:28;;;;;;;;;9.50;9.50;;;;;20.02;63.99;101341.13;5076934;28;45776;-76
2022/08/19 03:55:54;;;;;;;;;14.00;14.00;;;;;20.04;63.38;101333.97;5078116;27;45302;-75
2022/08/19 03:58:20;;;;;;;;;14.75;13.00;;;;;20.05;63.65;101335.66;5077026;27;45485;-75
2022/08/19 04:00:46;;;;;;;;;15.00;12.50;;;;;20.07;63.43;101335.56;5076739;27;45796;-75
2022/08/19 04:03:11;;;;;;;;;20.50;15.25;;;;;20.11;63.13;101334.44;5076734;28;72176;-75
2022/08/19 04:05:37;;;;;;;;;14.00;12.00;;;;;20.18;63.45;101334.94;5077205;28;68285;-76
2022/08/19 04:08:03;;;;;;;;;17.25;10.75;;;;;20.19;63.59;101332.19;5078093;27;45482;-75
2022/08/19 04:10:29;;;;;;;;;15.50;11.00;;;;;20.19;63.11;101332.19;5077841;27;45528;-75
2022/08/19 04:12:54;;;;;;;;;12.25;11.00;;;;;20.20;63.51;101327.75;5077076;28;72667;-75
2022/08/19 04:15:20;;;;;;;;;14.00;13.00;;;;;20.24;62.92;101334.56;5075771;27;62211;-75
2022/08/19 04:17:46;;;;;;;;;13.50;12.75;;;;;20.23;62.84;101333.72;5077501;27;45435;-75
2022/08/19 04:20:11;;;;;;;;;15.50;11.75;;;;;20.26;62.50;101332.66;5076668;28;45388;-75
2022/08/19 04:22:37;;;;;;;;;15.50;12.00;;;;;20.29;62.74;101329.84;5076535;28;45389;-75
2022/08/19 04:25:03;;;;;;;;;14.25;13.50;;;;;20.27;62.82;101327.28;5077166;27;60299;-75
2022/08/19 04:27:29;;;;;;;;;12.50;10.50;;;;;20.27;62.64;101327.28;5077768;27;45226;-75
2022/08/19 04:29:54;;;;;;;;;12.25;11.75;;;;;20.23;62.94;101332.88;5077512;27;45335;-75
2022/08/19 04:32:20;;;;;;;;;13.25;12.25;;;;;20.18;63.30;101333.13;5077025;27;45479;-75
2022/08/19 04:34:46;;;;;;;;;11.00;10.00;;;;;20.14;63.00;101333.41;5077551;27;45222;-75
2022/08/19 04:37:12;;;;;;;;;12.50;11.00;;;;;20.08;63.38;101330.19;5076691;28;69604;-76
2022/08/19 04:42:40;;;;;;;;;11.00;11.00;;;;;20.09;63.51;101346.91;5076584;28;45303;-75
2022/08/19 04:45:12;;;;;;;;;11.00;8.00;;;;;20.08;63.70;101345.22;5077482;28;45279;-76
2022/08/19 04:47:39;;;;;;;;;11.00;9.00;;;;;20.04;63.83;101343.66;5077151;27;45512;-76
2022/08/19 04:50:05;;;;;;;;;10.75;9.00;;;;;19.99;63.82;101346.59;5075949;28;46032;-76
2022/08/19 04:52:31;;;;;;;;;11.00;9.50;;;;;20.00;63.49;101356.25;5077236;27;45908;-75
2022/08/19 04:54:57;;;;;;;;;11.00;9.50;;;;;20.00;64.31;101358.00;5077249;27;45372;-74
2022/08/19 04:57:23;;;;;;;;;15.00;9.00;;;;;20.05;63.72;101358.59;5077434;27;45430;-75
2022/08/19 04:59:48;;;;;;;;;9.00;8.50;;;;;20.07;63.59;101362.84;5075973;28;45428;-75
2022/08/19 05:02:14;;;;;;;;;10.00;8.25;;;;;20.07;63.92;101365.47;5075519;27;45384;-75
2022/08/19 05:04:39;;;;;;;;;9.50;9.00;;;;;20.06;64.07;101363.78;5077214;27;45434;-76
2022/08/19 05:07:05;;;;;;;;;8.75;7.75;;;;;20.06;63.21;101355.88;5058866;28;45382;-74
2022/08/19 05:09:31;;;;;;;;;11.25;7.25;;;;;20.08;63.59;101361.91;5076985;27;46448;-75
2022/08/19 05:11:56;;;;;;;;;10.75;8.50;;;;;20.11;63.38;101351.16;5076966;27;45379;-76
2022/08/19 05:14:22;;;;;;;;;8.00;7.00;;;;;20.22;63.00;101366.34;5077101;28;45407;-75
2022/08/19 05:16:48;;;;;;;;;6.75;6.75;;;;;20.26;63.18;101372.31;5076867;27;45361;-75
2022/08/19 05:24:41;;;;;;;;;7.00;6.75;;;;;20.24;62.98;101369.75;5075909;28;45405;-76
2022/08/19 05:27:07;;;;;;;;;7.50;6.50;;;;;20.24;63.18;101368.91;5075893;27;66643;-75
2022/08/19 05:29:34;;;;;;;;;10.00;6.00;;;;;20.21;63.42;101377.06;5076375;27;45340;-75
2022/08/19 05:32:00;;;;;;;;;6.50;6.00;;;;;20.18;63.52;101372.78;5076205;27;45336;-75
2022/08/19 05:34:26;;;;;;;;;8.00;6.00;;;;;20.18;63.28;101375.41;5076615;27;45261;-75
2022/08/19 05:36:56;;;;;;;;;7.75;6.00;;;;;20.20;62.98;101370.88;5076903;27;45279;-75
2022/08/19 05:39:24;;;;;;;;;6.50;6.00;;;;;20.29;63.13;101374.78;5075301;27;46462;-76
2022/08/19 05:41:57;;;;;;;;;5.25;5.00;;;;;20.30;63.38;101374.69;5075419;28;45756;-75
2022/08/19 05:44:24;;;;;;;;;7.00;6.00;;;;;20.27;62.87;101371.38;5075180;27;45393;-75
2022/08/19 05:46:52;;;;;;;;;6.25;5.75;;;;;20.33;62.88;101378.09;5076656;27;45462;-75
2022/08/19 05:49:20;;;;;;;;;8.00;7.00;;;;;20.36;63.25;101381.41;5075049;27;46970;-76
2022/08/19 05:51:46;;;;;;;;;5.50;5.50;;;;;20.31;63.35;101373.75;5075245;28;45748;-75
2022/08/19 05:54:13;;;;;;;;;7.25;5.75;;;;;20.32;63.30;101379.91;5075105;28;45629;-75
2022/08/19 05:56:39;;;;;;;;;6.00;5.25;;;;;20.31;63.44;101371.09;5076439;27;45503;-75
2022/08/19 05:59:10;;;;;;;;;7.00;5.00;;;;;20.34;63.52;101385.06;5074697;27;45379;-76
2022/08/19 06:01:37;;;;;;;;;6.25;4.75;;;;;20.38;63.17;101376.88;5075150;27;45401;-75
2022/08/19 06:04:03;;;;;;;;;4.50;4.25;;;;;20.43;63.80;101382.75;5076340;27;45440;-76
2022/08/19 06:06:29;;;;;;;;;8.25;5.50;;;;;20.46;63.46;101379.91;5074862;27;45552;-76
2022/08/19 06:08:54;;;;;;;;;4.25;4.25;;;;;20.50;63.38;101392.03;5076018;28;46253;-76
2022/08/19 06:11:32;;;;;;;;;9.00;6.00;;;;;20.56;63.58;101397.84;5075369;27;71227;-75
2022/08/19 06:14:01;;;;;;;;;5.25;5.25;;;;;20.60;63.19;101394.97;5075916;28;45449;-75
2022/08/19 06:16:27;;;;;;;;;4.00;4.00;;;;;20.62;62.92;101392.25;5074775;28;45389;-75
2022/08/19 06:18:54;;;;;;;;;6.00;6.00;;;;;20.68;63.16;101394.50;5076082;27;47315;-75
2022/08/19 06:21:21;;;;;;;;;4.00;4.00;;;;;20.74;63.35;101402.06;5074890;27;45366;-75
2022/08/19 06:23:47;;;;;;;;;8.75;6.00;;;;;20.75;63.56;101401.13;5074749;28;45287;-75
2022/08/19 06:26:13;;;;;;;;;7.75;4.25;;;;;20.74;63.31;101393.28;5076108;27;45359;-75
2022/08/19 06:28:42;;;;;;;;;6.50;5.00;;;;;20.72;63.47;101403.13;5074174;28;46428;-75
2022/08/19 06:31:08;;;;;;;;;8.00;5.00;;;;;20.73;63.45;101410.97;5075599;27;45955;-76
2022/08/19 06:33:33;;;;;;;;;5.00;4.25;;;;;20.83;63.70;101409.44;5074949;27;45338;-76
2022/08/19 06:35:59;;;;;;;;;7.00;4.75;;;;;20.89;63.66;101405.56;5074455;27;45571;-76
2022/08/19 06:38:24;;;;;;;;;4.00;4.00;;;;;20.88;63.00;101410.00;5074735;28;74386;-75
2022/08/19 06:40:49;;;;;;;;;5.00;4.00;;;;;20.87;63.21;101405.66;5075822;28;45472;-76
2022/08/19 06:43:15;;;;;;;;;4.00;4.00;;;;;20.95;63.60;101397.25;5076474;28;59699;-75
2022/08/19 06:45:41;;;;;;;;;5.50;4.00;;;;;21.07;62.97;101409.72;5078354;27;45433;-76
2022/08/19 06:48:07;;;;;;;;;3.75;3.00;;;;;21.17;62.45;101403.84;5079469;27;45396;-76
2022/08/19 06:50:32;;;;;;;;;7.00;3.50;;;;;21.26;63.20;101400.59;5079375;27;45343;-76
2022/08/19 06:52:57;;;;;;;;;4.00;3.00;;;;;21.27;63.01;101410.25;5078456;28;69309;-76
2022/08/19 06:55:23;;;;;;;;;3.00;3.00;;;;;21.28;62.90;101411.94;5078770;27;52989;-76
2022/08/19 06:57:50;;;;;;;;;4.00;3.00;;;;;21.28;62.45;101401.34;5078686;27;46351;-76
2022/08/19 07:00:15;;;;;;;;;4.00;4.00;;;;;21.26;62.59;101408.56;5079314;27;45862;-76
2022/08/19 07:02:41;;;;;;;;;3.00;2.50;;;;;21.20;63.00;101412.44;5078455;27;59674;-76
2022/08/19 07:05:07;;;;;;;;;2.50;2.50;;;;;21.23;63.00;101420.19;5077961;27;45440;-76
2022/08/19 07:07:33;;;;;;;;;5.50;3.00;;;;;21.22;62.78;101422.94;5079221;28;45427;-76
2022/08/19 07:09:59;;;;;;;;;1.00;1.00;;;;;21.26;62.67;101427.94;5077696;27;45277;-76
2022/08/19 07:12:24;;;;;;;;;2.00;1.50;;;;;21.28;62.63;101422.53;5078756;27;45218;-76
2022/08/19 07:14:50;;;;;;;;;2.25;1.50;;;;;21.32;62.12;101437.31;5077944;28;66169;-76
2022/08/19 07:17:15;;;;;;;;;3.75;2.00;;;;;21.31;62.67;101421.50;5078592;28;46922;-76
2022/08/19 07:19:42;;;;;;;;;2.00;1.75;;;;;21.29;62.92;101421.59;5077669;28;45344;-75
2022/08/19 07:22:08;;;;;;;;;2.00;1.00;;;;;21.36;62.66;101430.00;5078884;27;45357;-76
2022/08/19 07:24:34;;;;;;;;;1.25;0.00;;;;;21.37;62.57;101426.41;5078909;27;45333;-75
2022/08/19 07:27:03;;;;;;;;;2.00;2.00;;;;;21.28;62.54;101427.84;5076952;27;46067;-75
2022/08/19 07:29:30;;;;;;;;;4.00;2.00;;;;;21.25;62.73;101426.25;5077387;27;45590;-76
2022/08/19 07:31:56;;;;;;;;;3.25;2.00;;;;;21.23;62.92;101429.94;5078785;27;45493;-75
2022/08/19 07:34:22;;;;;;;;;1.00;1.00;;;;;21.24;63.19;101434.28;5077281;28;45453;-76
2022/08/19 07:36:49;;;;;;;;;1.00;1.00;;;;;21.23;63.09;101427.28;5077416;27;45337;-76
2022/08/19 07:39:21;;;;;;;;;0.00;0.00;;;;;21.25;63.43;101428.06;5078537;27;45415;-76
2022/08/19 07:41:46;;;;;;;;;2.75;2.25;;;;;21.26;63.62;101433.22;5076986;27;45244;-75
2022/08/19 07:44:13;;;;;;;;;1.75;1.75;;;;;21.28;63.52;101427.84;5078654;28;45289;-75
2022/08/19 07:46:41;;;;;;;;;2.00;2.00;;;;;21.32;63.34;101425.84;5077050;27;46598;-76
2022/08/19 07:49:07;;;;;;;;;1.00;1.00;;;;;21.27;63.11;101423.50;5078314;28;45323;-76
2022/08/19 07:51:33;;;;;;;;;2.00;2.00;;;;;21.35;63.45;101425.66;5077104;28;45370;-76
2022/08/19 07:53:59;;;;;;;;;3.00;1.75;;;;;21.37;62.88;101421.97;5078069;27;45405;-75
2022/08/19 07:56:25;;;;;;;;;2.00;1.00;;;;;21.41;63.03;101419.97;5076469;28;46622;-75
2022/08/19 07:58:51;;;;;;;;;2.00;2.00;;;;;21.51;63.01;101425.53;5078270;28;45487;-75
2022/08/19 08:01:24;;;;;;;;;1.75;1.50;;;;;21.58;62.63;101422.44;5077204;28;45380;-76
2022/08/19 08:09:27;;;;;;;;;2.75;2.00;;;;;21.89;61.83;101430.19;5077645;27;45370;-76
2022/08/19 08:11:56;;;;;;;;;1.00;1.00;;;;;21.85;61.90;101425.06;5078150;27;45442;-75
2022/08/19 08:14:28;;;;;;;;;2.00;2.00;;;;;21.90;61.60;101430.06;5076741;27;45320;-76
2022/08/19 08:16:54;;;;;;;;;1.75;1.00;;;;;21.97;62.20;101419.91;5076669;28;45277;-76
2022/08/19 08:19:21;;;;;;;;;1.00;1.00;;;;;22.00;61.51;101428.50;5076486;27;45422;-76
2022/08/19 08:21:47;;;;;;;;;1.00;1.00;;;;;22.02;61.60;101431.06;5076792;27;45274;-76
2022/08/19 08:24:13;;;;;;;;;1.00;1.00;;;;;22.07;61.39;101438.72;5077555;27;45298;-75
2022/08/19 08:26:40;;;;;;;;;1.00;1.00;;;;;22.11;61.51;101441.06;5076397;28;45433;-75
2022/08/19 08:29:07;;;;;;;;;1.00;1.00;;;;;22.11;61.26;101435.75;5076391;27;45690;-76
2022/08/19 08:31:33;;;;;;;;;2.00;1.00;;;;;22.11;61.29;101437.56;5076476;28;45354;-75
2022/08/19 08:33:59;;;;;;;;;1.25;1.25;;;;;22.12;60.74;101440.13;5077773;27;45376;-75
2022/08/19 08:36:25;;;;;;;;;3.75;2.00;;;;;22.17;61.02;101437.97;5077411;27;46303;-75
2022/08/19 08:38:51;;;;;;;;;1.75;1.00;;;;;22.20;60.74;101431.66;5077326;27;45867;-76
2022/08/19 08:41:27;;;;;;;;;1.00;1.00;;;;;22.26;60.98;101435.72;5077780;27;45426;-75
2022/08/19 08:43:53;;;;;;;;;2.00;1.00;;;;;22.30;60.45;101435.41;5077587;27;45240;-75
2022/08/19 08:46:29;;;;;;;;;2.00;2.00;;;;;22.37;60.55;101443.81;5076168;27;47192;-76
2022/08/19 08:49:05;;;;;;;;;1.25;1.00;;;;;22.42;60.48;101449.66;5076208;28;45408;-75
2022/08/19 08:52:17;;;;;;;;;2.00;2.00;;;;;22.39;60.87;101448.03;5077415;27;45653;-76
2022/08/19 08:54:45;;;;;;;;;2.00;1.00;;;;;22.41;60.44;101443.47;5071055;28;45446;-76
2022/08/19 08:57:27;;;;;;;;;4.50;2.00;;;;;22.41;60.06;101440.81;5075946;27;46108;-75
2022/08/19 08:59:58;;;;;;;;;3.00;2.00;;;;;22.47;60.67;101442.19;5076041;27;45346;-76
2022/08/19 09:02:24;;;;;;;;;4.50;2.00;;;;;22.59;60.13;101446.69;5077426;27;45395;-76
2022/08/19 09:04:49;;;;;;;;;3.00;2.25;;;;;22.68;59.70;101439.03;5077013;27;45304;-75
2022/08/19 09:07:31;;;;;;;;;1.00;1.00;;;;;22.80;59.17;101436.38;5075018;28;77546;-76
2022/08/19 09:10:04;;;;;;;;;3.50;1.00;;;;;22.81;59.20;101438.09;5075868;27;45403;-76
2022/08/19 09:13:02;;;;;;;;;3.00;1.00;;;;;22.88;59.29;101438.53;5075905;27;45333;-76
2022/08/19 09:15:34;;;;;;;;;2.00;2.00;;;;;22.90;58.77;101436.59;5075903;27;45381;-77
2022/08/19 09:18:01;;;;;;;;;1.00;1.00;;;;;22.95;58.55;101437.13;5075633;27;45998;-76
2022/08/19 09:20:27;;;;;;;;;1.50;1.50;;;;;23.05;58.61;101431.19;5076903;27;45385;-76
2022/08/19 09:22:53;;;;;;;;;3.75;1.75;;;;;23.13;58.13;101439.47;5076592;27;45405;-76
2022/08/19 09:25:22;;;;;;;;;2.00;1.00;;;;;23.26;58.89;101442.13;5075885;28;69346;-76
2022/08/19 09:27:48;;;;;;;;;1.25;1.25;;;;;23.39;57.43;101437.59;5076686;27;46392;-76
2022/08/19 09:30:17;;;;;;;;;2.00;2.00;;;;;23.54;57.34;101439.16;5076755;27;45376;-76
2022/08/19 09:32:43;;;;;;;;;1.75;1.25;;;;;23.71;57.15;101432.59;5075491;28;45401;-76
2022/08/19 09:35:10;;;;;;;;;0.75;0.75;;;;;23.93;56.47;101431.06;5075403;27;45266;-75
2022/08/19 09:37:35;;;;;;;;;2.00;2.00;;;;;24.06;56.47;101425.66;5076330;27;45419;-76
2022/08/19 09:40:01;;;;;;;;;1.00;1.00;;;;;24.22;56.04;101425.34;5075614;27;71859;-76
2022/08/19 09:42:26;;;;;;;;;2.00;2.00;;;;;24.32;55.78;101431.66;5076824;27;45320;-75
2022/08/19 09:44:52;;;;;;;;;1.00;1.00;;;;;24.44;55.41;101437.84;5075638;27;70907;-74
2022/08/19 09:47:17;;;;;;;;;1.50;1.50;;;;;24.57;55.65;101443.13;5075407;27;73778;-75
2022/08/19 09:49:43;;;;;;;;;1.75;1.25;;;;;24.76;54.98;101439.88;5076369;27;45354;-76
2022/08/19 09:52:10;;;;;;;;;1.50;1.00;;;;;24.99;53.82;101446.91;5076145;27;45654;-76
2022/08/19 09:54:35;;;;;;;;;2.75;2.00;;;;;25.08;53.94;101446.19;5076154;27;45367;-76
2022/08/19 09:57:01;;;;;;;;;3.25;3.00;;;;;25.02;53.00;101437.84;5075483;27;74062;-76
2022/08/19 09:59:27;;;;;;;;;2.25;2.00;;;;;24.87;53.46;101443.41;5076076;28;54534;-77
2022/08/19 10:01:53;;;;;;;;;2.00;2.00;;;;;24.83;53.19;101443.75;5076507;27;45314;-76
2022/08/19 10:04:19;;;;;;;;;1.25;1.25;;;;;24.71;53.70;101440.25;5076194;28;45435;-76
2022/08/19 10:06:47;;;;;;;;;1.00;1.00;;;;;24.82;53.91;101437.59;5075694;27;46265;-76
2022/08/19 10:09:14;;;;;;;;;2.50;1.00;;;;;25.04;54.19;101438.56;5076172;27;45415;-76
2022/08/19 10:11:41;;;;;;;;;1.50;1.50;;;;;25.16;52.98;101440.25;5076261;27;45481;-77
2022/08/19 10:14:07;;;;;;;;;2.25;2.25;;;;;25.28;52.83;101436.63;5076314;27;45349;-76
2022/08/19 10:16:32;;;;;;;;;3.25;2.50;;;;;25.39;52.55;101434.91;5074460;28;74998;-76
2022/08/19 10:18:59;;;;;;;;;3.50;2.25;;;;;25.53;52.04;101428.47;5075288;27;45405;-77
2022/08/19 10:21:27;;;;;;;;;4.75;3.00;;;;;25.67;52.24;101434.38;5075962;27;45511;-77
2022/08/19 10:23:57;;;;;;;;;1.00;1.00;;;;;25.94;52.07;101429.59;5076088;28;45321;-76
2022/08/19 10:26:29;;;;;;;;;1.00;1.00;;;;;26.18;50.92;101427.50;5075776;27;45333;-76
2022/08/19 10:28:55;;;;;;;;;1.00;1.00;;;;;26.25;50.28;101427.84;5076039;27;45400;-75
2022/08/19 10:31:25;;;;;;;;;3.00;1.25;;;;;26.31;50.37;101426.50;5075854;28;45282;-76
2022/08/19 10:33:56;;;;;;;;;0.75;0.75;;;;;26.23;50.71;101416.47;5075844;27;45506;-76
2022/08/19 10:36:24;;;;;;;;;2.00;1.00;;;;;26.27;50.08;101423.22;5075588;27;46362;-76
2022/08/19 10:38:56;;;;;;;;;1.00;1.00;;;;;26.32;50.62;101421.03;5075904;27;45649;-76
2022/08/19 10:41:23;;;;;;;;;1.00;1.00;;;;;26.25;49.85;101426.03;5075838;27;45312;-76
2022/08/19 10:43:54;;;;;;;;;3.00;1.25;;;;;26.19;49.80;101418.56;5075847;27;45377;-76
2022/08/19 10:46:20;;;;;;;;;1.00;1.00;;;;;26.21;50.82;101416.59;5075517;27;46362;-76
2022/08/19 10:48:45;;;;;;;;;0.50;0.50;;;;;26.21;50.77;101421.09;5075307;27;45265;-76
2022/08/19 10:53:56;;;;;;;;;1.00;1.00;;;;;26.10;50.85;101431.81;5075558;28;45306;-76
2022/08/19 10:59:05;;;;;;;;;0.75;0.50;;;;;25.72;50.78;101419.81;5075574;28;45373;-76
2022/08/19 11:01:33;;;;;;;;;1.25;1.00;;;;;25.57;50.55;101413.91;5074433;28;70256;-76
2022/08/19 11:04:00;;;;;;;;;1.00;1.00;;;;;25.44;51.43;101422.91;5075368;27;45456;-76
2022/08/19 11:06:26;;;;;;;;;1.00;1.00;;;;;25.26;51.22;101417.28;5075371;27;46082;-75
2022/08/19 11:08:54;;;;;;;;;2.00;0.50;;;;;25.19;51.85;101416.03;5074602;27;70693;-76
2022/08/19 11:11:20;;;;;;;;;1.25;1.00;;;;;25.03;52.15;101419.06;5075470;27;45480;-76
2022/08/19 11:13:46;;;;;;;;;2.00;1.00;;;;;24.95;52.48;101420.66;5074214;28;45369;-76
2022/08/19 11:16:14;;;;;;;;;2.50;1.00;;;;;24.91;52.51;101418.22;5075164;27;45393;-76
2022/08/19 11:18:43;;;;;;;;;2.00;0.75;;;;;24.95;52.20;101412.66;5075084;27;45457;-75
2022/08/19 11:21:27;;;;;;;;;5.25;1.00;;;;;24.95;52.09;101418.00;5075286;27;45229;-76
2022/08/19 11:23:55;;;;;;;;;1.00;1.00;;;;;24.89;52.07;101406.00;5074067;28;45515;-76
2022/08/19 11:26:22;;;;;;;;;1.00;0.00;;;;;24.87;52.31;101418.56;5073934;28;45405;-76
2022/08/19 11:28:50;;;;;;;;;1.00;1.00;;;;;24.83;52.22;101417.13;5075901;27;45685;-76
2022/08/19 11:31:19;;;;;;;;;1.00;1.00;;;;;24.77;52.55;101414.97;5078636;27;45348;-75
2022/08/19 11:33:45;;;;;;;;;0.00;0.00;;;;;24.69;52.23;101412.91;5078403;27;45347;-75
2022/08/19 11:36:11;;;;;;;;;1.25;1.00;;;;;24.63;52.64;101410.72;5078255;27;45615;-76
2022/08/19 11:38:37;;;;;;;;;0.00;0.00;;;;;24.58;53.82;101403.09;5077335;27;45761;-75
2022/08/19 11:41:05;;;;;;;;;1.00;1.00;;;;;24.53;52.91;101407.91;5076388;28;69296;-76